createdAt,value
2019-03-21T00:00:53.427Z,2.75
2019-03-21T00:03:21.694Z,2.70
2019-03-21T00:05:49.952Z,2.55
2019-03-21T00:08:18.204Z,2.47
2019-03-21T00:10:48.152Z,2.70
2019-03-21T00:13:16.415Z,3.05
2019-03-21T00:15:55.458Z,2.83
2019-03-21T00:18:23.740Z,2.40
2019-03-21T00:20:52.007Z,3.58
2019-03-21T00:23:20.271Z,2.85
2019-03-21T00:25:48.559Z,2.92
2019-03-21T00:28:16.888Z,3.60
2019-03-21T00:30:45.274Z,2.50
2019-03-21T00:33:13.639Z,3.30
2019-03-21T00:35:41.896Z,3.02
2019-03-21T00:38:10.149Z,3.10
2019-03-21T00:40:39.972Z,3.30
2019-03-21T00:43:09.408Z,3.20
2019-03-21T00:45:37.661Z,3.20
2019-03-21T00:48:07.393Z,3.00
2019-03-21T00:50:35.649Z,2.92
2019-03-21T00:53:03.920Z,3.05
2019-03-21T00:55:33.796Z,3.02
2019-03-21T00:58:02.133Z,2.90
2019-03-21T01:00:35.096Z,2.90
2019-03-21T01:03:03.780Z,2.72
2019-03-21T01:05:32.302Z,2.70
2019-03-21T01:08:00.560Z,3.22
2019-03-21T01:10:29.704Z,3.37
2019-03-21T01:12:57.970Z,2.95
2019-03-21T01:15:26.281Z,3.05
2019-03-21T01:17:54.531Z,3.02
2019-03-21T01:20:22.817Z,2.55
2019-03-21T01:22:51.243Z,2.45
2019-03-21T01:25:33.177Z,2.98
2019-03-21T01:28:03.169Z,2.87
2019-03-21T01:30:31.427Z,2.47
2019-03-21T01:32:59.674Z,2.42
2019-03-21T01:35:27.956Z,2.30
2019-03-21T01:37:58.951Z,2.40
2019-03-21T01:40:31.823Z,2.30
2019-03-21T01:43:01.064Z,2.12
2019-03-21T01:45:29.329Z,2.20
2019-03-21T01:47:57.679Z,2.30
2019-03-21T01:50:27.574Z,2.37
2019-03-21T01:52:55.846Z,2.22
2019-03-21T01:55:24.197Z,2.25
2019-03-21T01:57:52.458Z,2.42
2019-03-21T02:00:22.369Z,2.70
2019-03-21T02:02:51.613Z,2.65
2019-03-21T02:05:19.881Z,5.03
2019-03-21T02:07:48.140Z,4.92
2019-03-21T02:10:16.763Z,3.52
2019-03-21T02:12:45.027Z,5.47
2019-03-21T02:15:17.836Z,4.65
2019-03-21T02:17:46.264Z,5.10
2019-03-21T02:20:15.172Z,4.40
2019-03-21T02:22:43.472Z,4.60
2019-03-21T02:25:25.455Z,4.53
2019-03-21T02:27:53.983Z,4.58
2019-03-21T02:30:23.888Z,4.42
2019-03-21T02:32:53.863Z,3.80
2019-03-21T02:35:22.139Z,4.17
2019-03-21T02:37:50.395Z,4.30
2019-03-21T02:40:22.983Z,4.60
2019-03-21T02:42:51.251Z,4.20
2019-03-21T02:45:19.737Z,3.40
2019-03-21T02:47:48.011Z,3.52
2019-03-21T02:50:17.929Z,3.77
2019-03-21T02:52:46.186Z,3.40
2019-03-21T02:55:15.409Z,3.67
2019-03-21T02:57:43.673Z,3.60
2019-03-21T03:00:13.575Z,3.77
2019-03-21T03:02:41.845Z,3.52
2019-03-21T03:05:17.614Z,3.62
2019-03-21T03:07:45.854Z,3.35
2019-03-21T03:10:15.833Z,3.40
2019-03-21T03:12:44.088Z,3.30
2019-03-21T03:15:22.726Z,3.15
2019-03-21T03:17:43.931Z,3.27
2019-03-21T03:20:13.788Z,3.20
2019-03-21T03:22:42.050Z,3.90
2019-03-21T03:25:11.817Z,4.15
2019-03-21T03:27:40.117Z,3.45
2019-03-21T03:30:10.007Z,5.35
2019-03-21T03:32:38.267Z,4.17
2019-03-21T03:35:08.173Z,4.42
2019-03-21T03:37:36.577Z,4.55
2019-03-21T03:40:06.460Z,5.08
2019-03-21T03:42:34.746Z,5.90
2019-03-21T03:45:03.663Z,5.53
2019-03-21T03:47:31.972Z,5.67
2019-03-21T03:50:00.477Z,5.42
2019-03-21T03:52:28.902Z,6.17
2019-03-21T03:54:57.180Z,5.83
2019-03-21T03:57:25.440Z,5.25
2019-03-21T03:59:53.712Z,4.55
2019-03-21T04:02:21.966Z,6.60
2019-03-21T04:04:50.241Z,5.58
2019-03-21T04:07:18.539Z,6.20
2019-03-21T04:09:49.882Z,6.90
2019-03-21T04:12:18.163Z,6.70
2019-03-21T04:14:46.435Z,6.20
2019-03-21T04:17:14.736Z,7.08
2019-03-21T04:19:43.016Z,6.42
2019-03-21T04:22:11.262Z,7.28
2019-03-21T04:24:39.586Z,6.92
2019-03-21T04:27:07.847Z,6.53
2019-03-21T04:29:36.099Z,6.85
2019-03-21T04:32:04.394Z,8.50
2019-03-21T04:34:32.696Z,6.47
2019-03-21T04:37:00.977Z,8.03
2019-03-21T04:39:29.217Z,7.12
2019-03-21T04:41:57.481Z,8.58
2019-03-21T04:44:25.796Z,7.55
2019-03-21T04:46:54.088Z,6.53
2019-03-21T04:49:22.382Z,7.70
2019-03-21T04:51:50.645Z,8.53
2019-03-21T04:54:18.899Z,8.40
2019-03-21T04:56:47.216Z,7.15
2019-03-21T04:59:15.478Z,6.65
2019-03-21T05:01:43.733Z,7.80
2019-03-21T05:04:12.022Z,7.20
2019-03-21T05:06:42.997Z,7.25
2019-03-21T05:09:12.344Z,7.80
2019-03-21T05:11:40.673Z,7.50
2019-03-21T05:14:08.948Z,8.68
2019-03-21T05:16:37.217Z,7.03
2019-03-21T05:19:05.521Z,7.70
2019-03-21T05:21:33.779Z,6.78
2019-03-21T05:24:02.141Z,7.47
2019-03-21T05:26:30.384Z,7.60
2019-03-21T05:29:05.492Z,6.17
2019-03-21T05:31:35.479Z,7.80
2019-03-21T05:34:04.544Z,7.00
2019-03-21T05:36:32.906Z,8.60
2019-03-21T05:39:01.352Z,8.48
2019-03-21T05:41:29.736Z,8.30
2019-03-21T05:43:59.962Z,7.87
2019-03-21T05:46:28.434Z,8.50
2019-03-21T05:48:56.807Z,7.55
2019-03-21T05:51:25.127Z,8.40
2019-03-21T05:53:53.513Z,7.50
2019-03-21T05:56:21.877Z,8.40
2019-03-21T05:58:50.286Z,9.63
2019-03-21T06:01:18.725Z,7.45
2019-03-21T06:03:47.291Z,9.03
2019-03-21T06:06:21.861Z,7.08
2019-03-21T06:09:04.285Z,7.15
2019-03-21T06:11:20.461Z,6.92
2019-03-21T06:13:48.924Z,7.05
2019-03-21T06:16:17.331Z,7.65
2019-03-21T06:18:50.371Z,8.10
2019-03-21T06:21:20.360Z,8.50
2019-03-21T06:23:50.335Z,8.45
2019-03-21T06:26:20.313Z,6.78
2019-03-21T06:28:48.687Z,10.25
2019-03-21T06:31:17.148Z,7.50
2019-03-21T06:33:48.184Z,10.18
2019-03-21T06:36:18.242Z,9.18
2019-03-21T06:38:47.752Z,10.00
2019-03-21T06:41:20.273Z,7.42
2019-03-21T06:43:56.795Z,7.70
2019-03-21T06:49:20.855Z,7.92
2019-03-21T06:51:50.808Z,7.80
2019-03-21T06:54:59.901Z,8.55
2019-03-21T06:57:12.164Z,8.58
2019-03-21T06:59:40.604Z,8.28
2019-03-21T07:02:13.594Z,9.00
2019-03-21T07:04:39.342Z,8.85
2019-03-21T07:07:08.682Z,8.53
2019-03-21T07:09:37.414Z,9.33
2019-03-21T07:12:05.821Z,8.68
2019-03-21T07:14:37.245Z,8.78
2019-03-21T07:17:12.096Z,7.62
2019-03-21T07:19:44.114Z,9.00
2019-03-21T07:22:14.306Z,8.28
2019-03-21T07:27:33.410Z,10.23
2019-03-21T07:30:02.009Z,9.60
2019-03-21T07:32:33.564Z,10.38
2019-03-21T07:35:02.788Z,8.85
2019-03-21T07:37:37.469Z,8.50
2019-03-21T07:40:08.101Z,9.83
2019-03-21T07:42:39.448Z,10.18
2019-03-21T07:51:38.742Z,9.58
2019-03-21T08:18:45.803Z,6.08
2019-03-21T08:21:14.283Z,6.15
2019-03-21T08:23:44.380Z,6.40
2019-03-21T08:26:15.310Z,5.28
2019-03-21T08:28:43.898Z,5.15
2019-03-21T08:31:13.105Z,6.00
2019-03-21T08:33:44.685Z,5.33
2019-03-21T08:36:15.997Z,5.70
2019-03-21T08:38:44.552Z,5.05
2019-03-21T08:41:14.721Z,4.78
2019-03-21T08:43:44.679Z,5.50
2019-03-21T08:46:18.801Z,4.42
2019-03-21T08:49:00.309Z,4.70
2019-03-21T08:51:29.383Z,4.62
2019-03-21T08:53:56.845Z,4.80
2019-03-21T08:56:25.354Z,4.87
2019-03-21T08:58:53.830Z,4.33
2019-03-21T09:01:23.875Z,4.17
2019-03-21T09:03:55.580Z,4.05
2019-03-21T09:09:01.344Z,3.50
2019-03-21T09:11:34.559Z,4.37
2019-03-21T09:14:02.860Z,3.75
2019-03-21T09:16:31.255Z,3.72
2019-03-21T09:18:59.605Z,3.40
2019-03-21T09:21:28.097Z,3.20
2019-03-21T09:24:01.212Z,2.90
2019-03-21T09:26:30.874Z,2.92
2019-03-21T09:37:40.390Z,2.87
2019-03-21T09:40:12.000Z,3.15
2019-03-21T09:42:40.648Z,2.83
2019-03-21T09:45:08.921Z,3.75
2019-03-21T09:47:37.249Z,2.67
2019-03-21T09:50:06.548Z,3.35
2019-03-21T09:52:35.082Z,3.10
2019-03-21T09:55:07.163Z,3.10
2019-03-21T09:57:37.352Z,2.42
2019-03-21T10:00:06.505Z,2.90
2019-03-21T10:02:35.028Z,3.30
2019-03-21T10:05:04.707Z,3.12
2019-03-21T10:07:32.981Z,3.65
2019-03-21T10:10:01.359Z,3.12
2019-03-21T10:12:29.683Z,3.05
2019-03-21T10:14:57.979Z,2.85
2019-03-21T10:17:26.338Z,3.60
2019-03-21T10:19:54.675Z,3.50
2019-03-21T10:22:24.663Z,3.12
2019-03-21T10:24:52.997Z,3.98
2019-03-21T10:27:21.442Z,3.75
2019-03-21T10:29:49.789Z,3.60
2019-03-21T10:32:18.292Z,3.35
2019-03-21T10:34:46.672Z,3.70
2019-03-21T10:37:15.020Z,3.50
2019-03-21T10:39:43.257Z,3.40
2019-03-21T10:42:11.517Z,4.17
2019-03-21T10:44:39.845Z,3.00
2019-03-21T10:47:08.128Z,2.90
2019-03-21T10:49:36.465Z,3.62
2019-03-21T10:52:04.720Z,3.33
2019-03-21T10:54:33.046Z,3.15
2019-03-21T10:57:01.463Z,3.40
2019-03-21T10:59:29.877Z,4.10
2019-03-21T11:02:06.827Z,3.02
2019-03-21T11:04:28.080Z,3.85
2019-03-21T11:07:02.257Z,4.22
2019-03-21T11:09:30.927Z,4.40
2019-03-21T11:11:59.294Z,4.17
2019-03-21T11:14:28.132Z,3.75
2019-03-21T11:16:56.392Z,3.27
2019-03-21T11:19:24.688Z,4.45
2019-03-21T11:21:53.055Z,3.70
2019-03-21T11:24:21.331Z,4.70
2019-03-21T11:26:49.596Z,3.70
2019-03-21T11:29:18.076Z,3.95
2019-03-21T11:31:46.375Z,3.47
2019-03-21T11:34:14.742Z,3.90
2019-03-21T11:36:43.032Z,3.95
2019-03-21T11:39:11.386Z,3.80
2019-03-21T11:41:39.758Z,3.83
2019-03-21T11:44:08.019Z,3.30
2019-03-21T11:46:36.273Z,3.42
2019-03-21T11:49:04.543Z,4.30
2019-03-21T11:51:32.891Z,3.40
2019-03-21T11:54:01.239Z,3.95
2019-03-21T11:56:29.520Z,4.60
2019-03-21T11:58:57.871Z,4.22
2019-03-21T12:01:30.935Z,3.62
2019-03-21T12:03:59.230Z,3.35
2019-03-21T12:06:27.521Z,3.70
2019-03-21T12:08:55.784Z,4.40
2019-03-21T12:11:26.590Z,4.85
2019-03-21T12:13:54.912Z,4.70
2019-03-21T12:16:23.235Z,3.25
2019-03-21T12:18:51.565Z,4.37
2019-03-21T12:21:19.858Z,4.20
2019-03-21T12:23:48.180Z,4.62
2019-03-21T12:26:16.456Z,4.95
2019-03-21T12:28:44.729Z,4.20
2019-03-21T12:31:13.067Z,4.95
2019-03-21T12:33:41.325Z,4.35
2019-03-21T12:36:09.608Z,3.30
2019-03-21T12:38:37.887Z,4.70
2019-03-21T12:41:06.202Z,4.30
2019-03-21T12:43:34.553Z,7.75
2019-03-21T12:46:02.973Z,5.12
2019-03-21T12:48:31.428Z,4.95
2019-03-21T12:50:59.709Z,5.08
2019-03-21T12:53:28.031Z,4.95
2019-03-21T12:55:56.440Z,4.40
2019-03-21T12:58:24.794Z,4.85
2019-03-21T13:00:53.113Z,5.10
2019-03-21T13:03:21.381Z,4.87
2019-03-21T13:05:49.717Z,5.10
2019-03-21T13:08:18.102Z,4.53
2019-03-21T13:10:46.403Z,5.25
2019-03-21T13:13:14.688Z,4.17
2019-03-21T13:15:42.966Z,3.95
2019-03-21T13:18:11.308Z,5.00
2019-03-21T13:20:39.755Z,5.28
2019-03-21T13:23:08.034Z,5.10
2019-03-21T13:25:36.369Z,5.47
2019-03-21T13:28:04.662Z,5.30
2019-03-21T13:30:32.926Z,5.28
2019-03-21T13:33:01.312Z,4.97
2019-03-21T13:35:32.963Z,4.25
2019-03-21T13:37:59.492Z,5.60
2019-03-21T13:40:27.781Z,5.67
2019-03-21T13:42:56.127Z,5.58
2019-03-21T13:45:24.410Z,5.40
2019-03-21T13:47:52.664Z,5.03
2019-03-21T13:50:20.908Z,4.95
2019-03-21T13:52:49.221Z,5.60
2019-03-21T13:55:17.627Z,6.20
2019-03-21T13:57:45.894Z,5.45
2019-03-21T14:00:15.792Z,4.53
2019-03-21T14:02:46.083Z,5.20
2019-03-21T14:05:14.495Z,5.03
2019-03-21T14:07:42.773Z,4.62
2019-03-21T14:10:11.105Z,3.85
2019-03-21T14:12:39.392Z,5.65
2019-03-21T14:15:19.565Z,5.58
2019-03-21T14:18:01.314Z,5.90
2019-03-21T14:20:34.711Z,5.85
2019-03-21T14:23:02.979Z,5.62
2019-03-21T14:25:31.303Z,4.03
2019-03-21T14:27:59.575Z,5.00
2019-03-21T14:30:29.258Z,4.53
2019-03-21T14:32:57.532Z,6.47
2019-03-21T14:35:26.285Z,4.78
2019-03-21T14:37:54.852Z,6.42
2019-03-21T14:40:23.136Z,6.30
2019-03-21T14:42:51.382Z,6.75
2019-03-21T14:45:19.666Z,5.35
2019-03-21T14:47:47.916Z,6.00
2019-03-21T14:50:16.454Z,5.58
2019-03-21T14:52:44.800Z,6.25
2019-03-21T14:55:13.848Z,6.20
2019-03-21T14:57:42.197Z,5.20
2019-03-21T15:00:15.156Z,6.03
2019-03-21T15:02:43.402Z,4.70
2019-03-21T15:05:11.740Z,6.20
2019-03-21T15:07:40.003Z,5.83
2019-03-21T15:10:09.649Z,5.80
2019-03-21T15:12:37.997Z,4.90
2019-03-21T15:15:07.137Z,5.25
2019-03-21T15:17:35.446Z,4.85
2019-03-21T15:20:07.577Z,6.10
2019-03-21T15:22:35.844Z,6.20
2019-03-21T15:25:05.588Z,6.20
2019-03-21T15:27:33.863Z,5.87
2019-03-21T15:30:02.155Z,5.92
2019-03-21T15:32:30.498Z,5.72
2019-03-21T15:34:58.831Z,6.70
2019-03-21T15:37:27.121Z,6.17
2019-03-21T15:39:55.447Z,7.17
2019-03-21T15:42:23.776Z,7.25
2019-03-21T15:45:05.801Z,7.03
2019-03-21T15:47:21.998Z,6.75
2019-03-21T15:49:50.346Z,6.22
2019-03-21T15:52:18.608Z,6.87
2019-03-21T15:54:49.431Z,6.37
2019-03-21T15:57:17.687Z,7.37
2019-03-21T15:59:45.966Z,7.33
2019-03-21T16:02:14.253Z,6.60
2019-03-21T16:04:42.669Z,6.37
2019-03-21T16:07:11.040Z,6.47
2019-03-21T16:09:39.328Z,6.70
2019-03-21T16:12:07.664Z,6.55
2019-03-21T16:14:35.928Z,6.70
2019-03-21T16:17:04.297Z,6.92
2019-03-21T16:19:32.566Z,6.65
2019-03-21T16:22:00.905Z,7.10
2019-03-21T16:24:29.258Z,7.03
2019-03-21T16:26:57.537Z,6.53
2019-03-21T16:29:25.807Z,6.85
2019-03-21T16:31:54.091Z,4.58
2019-03-21T16:34:22.427Z,6.58
2019-03-21T16:36:50.773Z,6.42
2019-03-21T16:39:19.046Z,7.17
2019-03-21T16:41:47.325Z,4.75
2019-03-21T16:44:15.612Z,6.15
2019-03-21T16:46:43.956Z,6.95
2019-03-21T16:49:12.234Z,6.62
2019-03-21T16:51:40.555Z,6.15
2019-03-21T16:54:17.037Z,6.60
2019-03-21T16:56:38.739Z,6.37
2019-03-21T16:59:07.165Z,6.47
2019-03-21T17:01:35.516Z,5.33
2019-03-21T17:04:03.772Z,6.30
2019-03-21T17:06:32.080Z,6.20
2019-03-21T17:09:00.430Z,9.55
2019-03-21T17:11:28.867Z,13.93
2019-03-21T17:13:57.219Z,15.30
2019-03-21T17:16:25.694Z,10.08
2019-03-21T17:27:50.460Z,12.10
2019-03-21T17:30:46.758Z,13.88
2019-03-21T17:36:48.792Z,13.80
2019-03-21T17:39:49.580Z,11.65
2019-03-21T17:53:47.486Z,11.10
2019-03-21T17:56:15.833Z,11.08
2019-03-21T17:58:44.293Z,10.93
2019-03-21T18:01:12.727Z,11.68
2019-03-21T18:03:41.134Z,11.12
2019-03-21T18:06:15.897Z,11.35
2019-03-21T18:08:44.323Z,12.40
2019-03-21T18:11:12.722Z,12.28
2019-03-21T18:13:41.013Z,12.05
2019-03-21T18:16:09.302Z,13.68
2019-03-21T18:18:37.706Z,14.58
2019-03-21T18:21:06.105Z,12.15
2019-03-21T18:23:34.479Z,11.90
2019-03-21T18:26:02.924Z,13.20
2019-03-21T18:28:31.348Z,12.98
2019-03-21T18:30:59.892Z,14.28
2019-03-21T18:33:28.338Z,13.58
2019-03-21T18:35:56.816Z,19.65
2019-03-21T18:38:25.124Z,18.73
2019-03-21T18:40:53.525Z,16.17
2019-03-21T18:43:22.033Z,14.60
2019-03-21T18:45:50.455Z,19.57
2019-03-21T18:48:18.896Z,16.77
2019-03-21T18:50:47.202Z,17.32
2019-03-21T18:53:15.464Z,15.58
2019-03-21T18:55:43.845Z,14.58
2019-03-21T18:58:12.271Z,12.93
2019-03-21T19:09:33.602Z,11.97
2019-03-21T19:12:04.240Z,12.70
2019-03-21T19:14:32.824Z,13.40
2019-03-21T19:17:01.284Z,12.28
2019-03-21T19:19:29.832Z,12.95
2019-03-21T19:21:58.433Z,11.95
2019-03-21T19:24:30.246Z,12.35
2019-03-21T19:26:58.771Z,12.90
2019-03-21T19:29:29.500Z,12.47
2019-03-21T19:31:57.974Z,12.90
2019-03-21T19:34:26.461Z,12.75
2019-03-21T19:36:56.592Z,10.75
2019-03-21T19:39:25.374Z,10.50
2019-03-21T19:41:56.014Z,9.80
2019-03-21T19:44:25.266Z,11.08
2019-03-21T19:46:53.631Z,11.65
2019-03-21T19:49:23.553Z,11.22
2019-03-21T19:51:52.069Z,10.88
2019-03-21T19:54:20.460Z,11.78
2019-03-21T19:56:48.871Z,10.78
2019-03-21T19:59:17.340Z,12.80
2019-03-21T20:01:45.802Z,17.60
2019-03-21T20:04:14.097Z,14.63
2019-03-21T20:06:42.412Z,20.48
2019-03-21T20:09:10.775Z,18.48
2019-03-21T20:11:39.143Z,16.67
2019-03-21T20:14:07.630Z,18.02
2019-03-21T20:16:36.538Z,19.37
2019-03-21T20:19:04.962Z,16.30
2019-03-21T20:21:33.472Z,16.17
2019-03-21T20:24:01.866Z,18.15
2019-03-21T20:26:30.282Z,17.02
2019-03-21T20:28:58.629Z,16.25
2019-03-21T20:31:27.040Z,16.45
2019-03-21T20:33:55.404Z,15.65
2019-03-21T20:36:24.059Z,17.15
2019-03-21T20:38:52.459Z,17.80
2019-03-21T20:41:20.898Z,17.50
2019-03-21T20:43:49.340Z,17.12
2019-03-21T20:46:17.785Z,18.25
2019-03-21T20:48:47.906Z,18.55
2019-03-21T20:51:16.380Z,16.65
2019-03-21T20:53:44.805Z,15.80
2019-03-21T20:56:15.572Z,16.45
2019-03-21T21:02:05.166Z,16.12
2019-03-21T21:04:36.039Z,16.20
2019-03-21T21:07:07.222Z,15.98
2019-03-21T21:09:46.342Z,17.17
2019-03-21T21:12:21.006Z,15.75
2019-03-21T21:14:55.769Z,15.98
2019-03-21T21:17:31.965Z,17.05
2019-03-21T21:20:13.848Z,17.30
2019-03-21T21:22:54.311Z,14.70
2019-03-21T21:26:57.692Z,16.55
2019-03-21T21:28:04.174Z,16.20
2019-03-21T21:30:33.893Z,15.53
2019-03-21T21:33:05.766Z,14.73
2019-03-21T21:35:39.975Z,17.07
2019-03-21T21:38:08.357Z,16.57
2019-03-21T21:40:39.766Z,16.25
2019-03-21T21:43:08.138Z,16.23
2019-03-21T21:45:36.462Z,17.67
2019-03-21T21:48:04.900Z,14.95
2019-03-21T21:50:33.237Z,16.82
2019-03-21T21:53:01.574Z,14.45
2019-03-21T21:55:29.985Z,15.10
2019-03-21T21:58:04.610Z,16.23
2019-03-21T22:00:47.876Z,15.55
2019-03-21T22:03:16.231Z,15.03
2019-03-21T22:05:44.633Z,16.35
2019-03-21T22:08:12.986Z,15.90
2019-03-21T22:10:41.327Z,16.07
2019-03-21T22:13:10.121Z,16.65
2019-03-21T22:15:38.393Z,16.02
2019-03-21T22:18:06.694Z,14.73
2019-03-21T22:20:34.967Z,15.65
2019-03-21T22:23:03.293Z,16.02
2019-03-21T22:25:31.707Z,14.60
2019-03-21T22:28:00.121Z,15.20
2019-03-21T22:30:28.562Z,15.50
2019-03-21T22:32:56.905Z,14.85
2019-03-21T22:35:25.195Z,14.83
2019-03-21T22:37:53.562Z,15.95
2019-03-21T22:40:21.930Z,14.85
2019-03-21T22:42:50.285Z,16.02
2019-03-21T22:45:18.701Z,15.48
2019-03-21T22:47:47.003Z,15.63
2019-03-21T22:50:16.961Z,15.53
2019-03-21T22:52:45.439Z,14.43
2019-03-21T22:55:13.828Z,13.98
2019-03-21T23:00:41.956Z,16.75
2019-03-21T23:03:10.932Z,14.80
2019-03-21T23:05:39.301Z,14.98
2019-03-21T23:08:07.685Z,14.13
2019-03-21T23:10:36.065Z,13.50
2019-03-21T23:13:04.436Z,14.85
2019-03-21T23:15:32.754Z,15.78
2019-03-21T23:21:11.216Z,13.75
2019-03-21T23:23:39.538Z,14.65
2019-03-21T23:26:07.905Z,14.20
2019-03-21T23:28:36.282Z,13.95
2019-03-21T23:31:04.646Z,16.02
2019-03-21T23:36:55.922Z,16.10
2019-03-21T23:39:24.282Z,15.23
2019-03-21T23:45:03.310Z,14.73
2019-03-21T23:50:54.509Z,14.05
2019-03-21T23:56:45.459Z,14.63
2019-03-21T23:59:13.843Z,13.83
